ADDS TAF Data INFO
IDs: Format: Raw Decoded Include METARs

Data at: 0853 UTC 22 Jul 2018

KCRW 220754Z 00000KT 10SM FEW000 SCT140 19/19 A2970 RMK AO2 SLP048 FG FEW000 T01890189 $

KCRW 220534Z 2206/2306 00000KT P6SM BKN090
  FM220900 00000KT 5SM BR BKN035
  FM221600 VRB03KT P6SM -SHRA VCTS OVC030CB
  FM230100 VRB03KT P6SM BKN050